sensor_id;sensor_type;location;lat;lon;timestamp;temperature;humidity
51500;DHT22;39101;53.478;6.158;2023-05-07T00:02:24;11.80;99.90
51500;DHT22;39101;53.478;6.158;2023-05-07T00:04:50;11.90;99.90
51500;DHT22;39101;53.478;6.158;2023-05-07T00:07:17;11.90;99.90
51500;DHT22;39101;53.478;6.158;2023-05-07T00:09:43;11.70;99.90
51500;DHT22;39101;53.478;6.158;2023-05-07T00:12:09;11.70;99.90
51500;DHT22;39101;53.478;6.158;2023-05-07T00:14:35;11.70;99.90
51500;DHT22;39101;53.478;6.158;2023-05-07T00:17:01;11.60;99.90
51500;DHT22;39101;53.478;6.158;2023-05-07T00:19:27;11.50;99.90
51500;DHT22;39101;53.478;6.158;2023-05-07T00:21:53;11.50;99.90
51500;DHT22;39101;53.478;6.158;2023-05-07T00:24:19;11.50;99.90
51500;DHT22;39101;53.478;6.158;2023-05-07T00:26:45;11.50;99.90
51500;DHT22;39101;53.478;6.158;2023-05-07T00:29:11;11.60;99.90
51500;DHT22;39101;53.478;6.158;2023-05-07T00:31:36;11.70;99.90
51500;DHT22;39101;53.478;6.158;2023-05-07T00:34:02;11.50;99.90
51500;DHT22;39101;53.478;6.158;2023-05-07T00:36:28;11.50;99.90
51500;DHT22;39101;53.478;6.158;2023-05-07T00:38:54;11.50;99.90
51500;DHT22;39101;53.478;6.158;2023-05-07T00:41:20;11.40;99.90
51500;DHT22;39101;53.478;6.158;2023-05-07T00:43:46;11.40;99.90
51500;DHT22;39101;53.478;6.158;2023-05-07T00:46:13;11.50;99.90
51500;DHT22;39101;53.478;6.158;2023-05-07T00:48:39;11.40;99.90
51500;DHT22;39101;53.478;6.158;2023-05-07T00:51:05;11.60;99.90
51500;DHT22;39101;53.478;6.158;2023-05-07T00:53:31;11.30;99.90
51500;DHT22;39101;53.478;6.158;2023-05-07T00:55:57;11.40;99.90
51500;DHT22;39101;53.478;6.158;2023-05-07T00:58:23;11.40;99.90
51500;DHT22;39101;53.478;6.158;2023-05-07T01:00:49;11.30;99.90
51500;DHT22;39101;53.478;6.158;2023-05-07T01:03:15;11.40;99.90
51500;DHT22;39101;53.478;6.158;2023-05-07T01:05:42;11.30;99.90
51500;DHT22;39101;53.478;6.158;2023-05-07T01:08:08;11.30;99.90
51500;DHT22;39101;53.478;6.158;2023-05-07T01:10:34;11.20;99.90
51500;DHT22;39101;53.478;6.158;2023-05-07T01:13:00;11.40;99.90
51500;DHT22;39101;53.478;6.158;2023-05-07T01:15:26;11.40;99.90
51500;DHT22;39101;53.478;6.158;2023-05-07T01:17:52;11.10;99.90
51500;DHT22;39101;53.478;6.158;2023-05-07T01:20:19;11.30;99.90
51500;DHT22;39101;53.478;6.158;2023-05-07T01:22:45;11.20;99.90
51500;DHT22;39101;53.478;6.158;2023-05-07T01:25:11;11.30;99.90
51500;DHT22;39101;53.478;6.158;2023-05-07T01:27:37;11.20;99.90
51500;DHT22;39101;53.478;6.158;2023-05-07T01:30:06;11.10;99.90
51500;DHT22;39101;53.478;6.158;2023-05-07T01:32:38;11.10;99.90
51500;DHT22;39101;53.478;6.158;2023-05-07T01:35:09;11.10;99.90
51500;DHT22;39101;53.478;6.158;2023-05-07T01:37:35;11.20;99.90
51500;DHT22;39101;53.478;6.158;2023-05-07T01:40:02;11.30;99.90
51500;DHT22;39101;53.478;6.158;2023-05-07T01:42:29;11.20;99.90
51500;DHT22;39101;53.478;6.158;2023-05-07T01:44:55;11.20;99.90
51500;DHT22;39101;53.478;6.158;2023-05-07T01:47:21;11.00;99.90
51500;DHT22;39101;53.478;6.158;2023-05-07T01:49:47;11.20;99.90
51500;DHT22;39101;53.478;6.158;2023-05-07T01:52:13;11.10;99.90
51500;DHT22;39101;53.478;6.158;2023-05-07T01:54:38;11.10;99.90
51500;DHT22;39101;53.478;6.158;2023-05-07T01:57:04;11.00;99.90
51500;DHT22;39101;53.478;6.158;2023-05-07T01:59:30;11.20;99.90
51500;DHT22;39101;53.478;6.158;2023-05-07T02:01:56;11.10;99.90
51500;DHT22;39101;53.478;6.158;2023-05-07T02:04:21;11.10;99.90
51500;DHT22;39101;53.478;6.158;2023-05-07T02:06:47;10.90;99.90
51500;DHT22;39101;53.478;6.158;2023-05-07T02:09:13;11.00;99.90
51500;DHT22;39101;53.478;6.158;2023-05-07T02:11:40;11.00;99.90
51500;DHT22;39101;53.478;6.158;2023-05-07T02:14:05;11.00;99.90
51500;DHT22;39101;53.478;6.158;2023-05-07T02:16:31;11.00;99.90
51500;DHT22;39101;53.478;6.158;2023-05-07T02:18:57;11.10;99.90
51500;DHT22;39101;53.478;6.158;2023-05-07T02:21:24;10.90;99.90
51500;DHT22;39101;53.478;6.158;2023-05-07T02:23:52;11.10;99.90
51500;DHT22;39101;53.478;6.158;2023-05-07T02:26:18;11.10;99.90
51500;DHT22;39101;53.478;6.158;2023-05-07T02:28:43;11.00;99.90
51500;DHT22;39101;53.478;6.158;2023-05-07T02:31:09;10.80;99.90
51500;DHT22;39101;53.478;6.158;2023-05-07T02:33:35;11.00;99.90
51500;DHT22;39101;53.478;6.158;2023-05-07T02:36:11;10.90;99.90
51500;DHT22;39101;53.478;6.158;2023-05-07T02:38:37;11.00;99.90
51500;DHT22;39101;53.478;6.158;2023-05-07T02:41:03;10.80;99.90
51500;DHT22;39101;53.478;6.158;2023-05-07T02:43:29;10.80;99.90
51500;DHT22;39101;53.478;6.158;2023-05-07T02:46:05;11.00;99.90
51500;DHT22;39101;53.478;6.158;2023-05-07T02:48:31;10.80;99.90
51500;DHT22;39101;53.478;6.158;2023-05-07T02:50:57;10.90;99.90
51500;DHT22;39101;53.478;6.158;2023-05-07T02:53:23;10.80;99.90
51500;DHT22;39101;53.478;6.158;2023-05-07T02:55:57;10.70;99.90
51500;DHT22;39101;53.478;6.158;2023-05-07T02:58:24;10.80;99.90
51500;DHT22;39101;53.478;6.158;2023-05-07T03:00:49;10.90;99.90
51500;DHT22;39101;53.478;6.158;2023-05-07T03:03:15;10.90;99.90
51500;DHT22;39101;53.478;6.158;2023-05-07T03:05:41;10.70;99.90
51500;DHT22;39101;53.478;6.158;2023-05-07T03:08:07;10.80;99.90
51500;DHT22;39101;53.478;6.158;2023-05-07T03:10:33;10.90;99.90
51500;DHT22;39101;53.478;6.158;2023-05-07T03:12:59;10.70;99.90
51500;DHT22;39101;53.478;6.158;2023-05-07T03:15:24;10.90;99.90
51500;DHT22;39101;53.478;6.158;2023-05-07T03:17:50;10.90;99.90
51500;DHT22;39101;53.478;6.158;2023-05-07T03:20:16;10.70;99.90
51500;DHT22;39101;53.478;6.158;2023-05-07T03:22:42;10.70;99.90
51500;DHT22;39101;53.478;6.158;2023-05-07T03:25:08;10.80;99.90
51500;DHT22;39101;53.478;6.158;2023-05-07T03:27:34;10.70;99.90
51500;DHT22;39101;53.478;6.158;2023-05-07T03:30:00;10.80;99.90
51500;DHT22;39101;53.478;6.158;2023-05-07T03:32:26;10.70;99.90
51500;DHT22;39101;53.478;6.158;2023-05-07T03:34:52;10.70;99.90
51500;DHT22;39101;53.478;6.158;2023-05-07T03:37:18;10.80;99.90
51500;DHT22;39101;53.478;6.158;2023-05-07T03:39:43;10.80;99.90
51500;DHT22;39101;53.478;6.158;2023-05-07T03:42:09;10.80;99.90
51500;DHT22;39101;53.478;6.158;2023-05-07T03:44:35;10.60;99.90
51500;DHT22;39101;53.478;6.158;2023-05-07T03:47:04;10.60;99.90
51500;DHT22;39101;53.478;6.158;2023-05-07T03:49:30;10.60;99.90
51500;DHT22;39101;53.478;6.158;2023-05-07T03:51:55;10.80;99.90
51500;DHT22;39101;53.478;6.158;2023-05-07T03:54:22;10.60;99.90
51500;DHT22;39101;53.478;6.158;2023-05-07T03:56:47;10.50;99.90
51500;DHT22;39101;53.478;6.158;2023-05-07T03:59:13;10.60;99.90
51500;DHT22;39101;53.478;6.158;2023-05-07T04:01:39;10.60;99.90
51500;DHT22;39101;53.478;6.158;2023-05-07T04:04:05;10.70;99.90
51500;DHT22;39101;53.478;6.158;2023-05-07T04:06:31;10.50;99.90
51500;DHT22;39101;53.478;6.158;2023-05-07T04:08:57;10.70;99.90
51500;DHT22;39101;53.478;6.158;2023-05-07T04:11:23;10.50;99.90
51500;DHT22;39101;53.478;6.158;2023-05-07T04:13:48;10.70;99.90
51500;DHT22;39101;53.478;6.158;2023-05-07T04:16:14;10.80;99.90
51500;DHT22;39101;53.478;6.158;2023-05-07T04:18:40;10.70;99.90
51500;DHT22;39101;53.478;6.158;2023-05-07T04:21:06;10.60;99.90
51500;DHT22;39101;53.478;6.158;2023-05-07T04:23:38;10.60;99.90
51500;DHT22;39101;53.478;6.158;2023-05-07T04:26:05;10.70;99.90
51500;DHT22;39101;53.478;6.158;2023-05-07T04:28:30;10.70;99.90
51500;DHT22;39101;53.478;6.158;2023-05-07T04:30:56;10.60;99.90
51500;DHT22;39101;53.478;6.158;2023-05-07T04:33:21;10.70;99.90
51500;DHT22;39101;53.478;6.158;2023-05-07T04:35:47;10.60;99.90
51500;DHT22;39101;53.478;6.158;2023-05-07T04:38:13;10.70;99.90
51500;DHT22;39101;53.478;6.158;2023-05-07T04:40:38;10.70;99.90
51500;DHT22;39101;53.478;6.158;2023-05-07T04:43:04;10.70;99.90
51500;DHT22;39101;53.478;6.158;2023-05-07T04:45:30;10.60;99.90
51500;DHT22;39101;53.478;6.158;2023-05-07T04:47:56;10.50;99.90
51500;DHT22;39101;53.478;6.158;2023-05-07T04:50:21;10.50;99.90
51500;DHT22;39101;53.478;6.158;2023-05-07T04:52:49;10.70;99.90
51500;DHT22;39101;53.478;6.158;2023-05-07T04:55:15;10.50;99.90
51500;DHT22;39101;53.478;6.158;2023-05-07T04:57:41;10.50;99.90
51500;DHT22;39101;53.478;6.158;2023-05-07T05:00:09;10.50;99.90
51500;DHT22;39101;53.478;6.158;2023-05-07T05:02:35;10.40;99.90
51500;DHT22;39101;53.478;6.158;2023-05-07T05:05:01;10.40;99.90
51500;DHT22;39101;53.478;6.158;2023-05-07T05:07:29;10.40;99.90
51500;DHT22;39101;53.478;6.158;2023-05-07T05:09:55;10.40;99.90
51500;DHT22;39101;53.478;6.158;2023-05-07T05:12:22;10.50;99.90
51500;DHT22;39101;53.478;6.158;2023-05-07T05:14:48;10.50;99.90
51500;DHT22;39101;53.478;6.158;2023-05-07T05:17:14;10.30;99.90
51500;DHT22;39101;53.478;6.158;2023-05-07T05:19:40;10.40;99.90
51500;DHT22;39101;53.478;6.158;2023-05-07T05:22:06;10.20;99.90
51500;DHT22;39101;53.478;6.158;2023-05-07T05:24:32;10.40;99.90
51500;DHT22;39101;53.478;6.158;2023-05-07T05:26:57;10.40;99.90
51500;DHT22;39101;53.478;6.158;2023-05-07T05:29:25;10.20;99.90
51500;DHT22;39101;53.478;6.158;2023-05-07T05:31:50;10.30;99.90
51500;DHT22;39101;53.478;6.158;2023-05-07T05:34:16;10.20;99.90
51500;DHT22;39101;53.478;6.158;2023-05-07T05:36:45;10.30;99.90
51500;DHT22;39101;53.478;6.158;2023-05-07T05:39:10;10.20;99.90
51500;DHT22;39101;53.478;6.158;2023-05-07T05:41:36;10.30;99.90
51500;DHT22;39101;53.478;6.158;2023-05-07T05:44:02;10.30;99.90
51500;DHT22;39101;53.478;6.158;2023-05-07T05:46:28;10.40;99.90
51500;DHT22;39101;53.478;6.158;2023-05-07T05:48:53;10.10;99.90
51500;DHT22;39101;53.478;6.158;2023-05-07T05:51:21;10.40;99.90
51500;DHT22;39101;53.478;6.158;2023-05-07T05:53:47;10.30;99.90
51500;DHT22;39101;53.478;6.158;2023-05-07T05:56:12;10.20;99.90
51500;DHT22;39101;53.478;6.158;2023-05-07T05:58:38;10.20;99.90
51500;DHT22;39101;53.478;6.158;2023-05-07T06:01:04;10.10;99.90
51500;DHT22;39101;53.478;6.158;2023-05-07T06:03:30;10.20;99.90
51500;DHT22;39101;53.478;6.158;2023-05-07T06:05:57;10.30;99.90
51500;DHT22;39101;53.478;6.158;2023-05-07T06:08:23;10.20;99.90
51500;DHT22;39101;53.478;6.158;2023-05-07T06:10:49;10.30;99.90
51500;DHT22;39101;53.478;6.158;2023-05-07T06:13:15;10.10;99.90
51500;DHT22;39101;53.478;6.158;2023-05-07T06:15:41;10.10;99.90
51500;DHT22;39101;53.478;6.158;2023-05-07T06:18:06;10.10;99.90
51500;DHT22;39101;53.478;6.158;2023-05-07T06:20:32;10.30;99.90
51500;DHT22;39101;53.478;6.158;2023-05-07T06:22:58;10.30;99.90
51500;DHT22;39101;53.478;6.158;2023-05-07T06:25:23;10.20;99.90
51500;DHT22;39101;53.478;6.158;2023-05-07T06:27:49;10.30;99.90
51500;DHT22;39101;53.478;6.158;2023-05-07T06:30:15;10.30;99.90
51500;DHT22;39101;53.478;6.158;2023-05-07T06:32:41;10.10;99.90
51500;DHT22;39101;53.478;6.158;2023-05-07T06:35:07;10.00;99.90
51500;DHT22;39101;53.478;6.158;2023-05-07T06:37:32;10.10;99.90
51500;DHT22;39101;53.478;6.158;2023-05-07T06:39:58;10.00;99.90
51500;DHT22;39101;53.478;6.158;2023-05-07T06:42:24;10.00;99.90
51500;DHT22;39101;53.478;6.158;2023-05-07T06:44:49;10.00;99.90
51500;DHT22;39101;53.478;6.158;2023-05-07T06:47:15;10.20;99.90
51500;DHT22;39101;53.478;6.158;2023-05-07T06:49:41;10.00;99.90
51500;DHT22;39101;53.478;6.158;2023-05-07T06:52:06;10.10;99.90
51500;DHT22;39101;53.478;6.158;2023-05-07T06:54:32;10.10;99.90
51500;DHT22;39101;53.478;6.158;2023-05-07T06:56:58;10.20;99.90
51500;DHT22;39101;53.478;6.158;2023-05-07T06:59:23;10.10;99.90
51500;DHT22;39101;53.478;6.158;2023-05-07T07:01:49;10.30;99.90
51500;DHT22;39101;53.478;6.158;2023-05-07T07:04:15;10.10;99.90
51500;DHT22;39101;53.478;6.158;2023-05-07T07:06:41;10.30;99.90
51500;DHT22;39101;53.478;6.158;2023-05-07T07:09:06;10.20;99.90
51500;DHT22;39101;53.478;6.158;2023-05-07T07:11:32;10.40;99.90
51500;DHT22;39101;53.478;6.158;2023-05-07T07:13:58;10.20;99.90
51500;DHT22;39101;53.478;6.158;2023-05-07T07:16:24;10.20;99.90
51500;DHT22;39101;53.478;6.158;2023-05-07T07:18:50;10.20;99.90
51500;DHT22;39101;53.478;6.158;2023-05-07T07:21:16;10.20;99.90
51500;DHT22;39101;53.478;6.158;2023-05-07T07:23:41;10.30;99.90
51500;DHT22;39101;53.478;6.158;2023-05-07T07:26:07;10.20;99.90
51500;DHT22;39101;53.478;6.158;2023-05-07T07:28:33;10.40;99.90
51500;DHT22;39101;53.478;6.158;2023-05-07T07:30:58;10.20;99.90
51500;DHT22;39101;53.478;6.158;2023-05-07T07:33:24;10.20;99.90
51500;DHT22;39101;53.478;6.158;2023-05-07T07:35:50;10.20;99.90
51500;DHT22;39101;53.478;6.158;2023-05-07T07:38:15;10.30;99.90
51500;DHT22;39101;53.478;6.158;2023-05-07T07:40:41;10.10;99.90
51500;DHT22;39101;53.478;6.158;2023-05-07T07:43:07;10.20;99.90
51500;DHT22;39101;53.478;6.158;2023-05-07T07:45:32;10.20;99.90
51500;DHT22;39101;53.478;6.158;2023-05-07T07:47:58;10.10;99.90
51500;DHT22;39101;53.478;6.158;2023-05-07T07:50:24;10.30;99.90
51500;DHT22;39101;53.478;6.158;2023-05-07T07:52:49;10.30;99.90
51500;DHT22;39101;53.478;6.158;2023-05-07T07:55:15;10.30;99.90
51500;DHT22;39101;53.478;6.158;2023-05-07T07:57:46;10.20;99.90
51500;DHT22;39101;53.478;6.158;2023-05-07T08:00:12;10.30;99.90
51500;DHT22;39101;53.478;6.158;2023-05-07T08:02:38;10.30;99.90
51500;DHT22;39101;53.478;6.158;2023-05-07T08:05:04;10.30;99.90
51500;DHT22;39101;53.478;6.158;2023-05-07T08:07:29;10.20;99.90
51500;DHT22;39101;53.478;6.158;2023-05-07T08:09:55;10.20;99.90
51500;DHT22;39101;53.478;6.158;2023-05-07T08:12:21;10.20;99.90
51500;DHT22;39101;53.478;6.158;2023-05-07T08:14:47;10.30;99.90
51500;DHT22;39101;53.478;6.158;2023-05-07T08:17:12;10.40;99.90
51500;DHT22;39101;53.478;6.158;2023-05-07T08:19:41;10.30;99.90
51500;DHT22;39101;53.478;6.158;2023-05-07T08:22:07;10.30;99.90
51500;DHT22;39101;53.478;6.158;2023-05-07T08:24:32;10.40;99.90
51500;DHT22;39101;53.478;6.158;2023-05-07T08:26:58;10.20;99.90
51500;DHT22;39101;53.478;6.158;2023-05-07T08:29:24;10.30;99.90
51500;DHT22;39101;53.478;6.158;2023-05-07T08:31:49;10.40;99.90
51500;DHT22;39101;53.478;6.158;2023-05-07T08:34:15;10.50;99.90
51500;DHT22;39101;53.478;6.158;2023-05-07T08:36:41;10.40;99.90
51500;DHT22;39101;53.478;6.158;2023-05-07T08:39:12;10.50;99.90
51500;DHT22;39101;53.478;6.158;2023-05-07T08:41:38;10.40;99.90
51500;DHT22;39101;53.478;6.158;2023-05-07T08:44:06;10.60;99.90
51500;DHT22;39101;53.478;6.158;2023-05-07T08:46:36;10.60;99.90
51500;DHT22;39101;53.478;6.158;2023-05-07T08:49:02;10.60;99.90
51500;DHT22;39101;53.478;6.158;2023-05-07T08:51:28;10.70;99.90
51500;DHT22;39101;53.478;6.158;2023-05-07T08:53:53;10.70;99.90
51500;DHT22;39101;53.478;6.158;2023-05-07T08:56:19;10.80;99.90
51500;DHT22;39101;53.478;6.158;2023-05-07T08:58:46;10.80;99.90
51500;DHT22;39101;53.478;6.158;2023-05-07T09:01:16;10.80;99.90
51500;DHT22;39101;53.478;6.158;2023-05-07T09:03:44;11.00;99.90
51500;DHT22;39101;53.478;6.158;2023-05-07T09:06:10;10.90;99.90
51500;DHT22;39101;53.478;6.158;2023-05-07T09:08:36;10.80;99.90
51500;DHT22;39101;53.478;6.158;2023-05-07T09:11:02;10.90;99.90
51500;DHT22;39101;53.478;6.158;2023-05-07T09:13:28;11.00;99.90
51500;DHT22;39101;53.478;6.158;2023-05-07T09:15:54;10.90;99.90
51500;DHT22;39101;53.478;6.158;2023-05-07T09:18:20;11.10;99.90
51500;DHT22;39101;53.478;6.158;2023-05-07T09:20:46;11.00;99.90
51500;DHT22;39101;53.478;6.158;2023-05-07T09:23:11;11.10;99.90
51500;DHT22;39101;53.478;6.158;2023-05-07T09:25:37;11.10;99.90
51500;DHT22;39101;53.478;6.158;2023-05-07T09:28:04;11.10;99.90
51500;DHT22;39101;53.478;6.158;2023-05-07T09:30:33;11.00;99.90
51500;DHT22;39101;53.478;6.158;2023-05-07T09:33:00;11.20;99.90
51500;DHT22;39101;53.478;6.158;2023-05-07T09:35:27;11.10;99.90
51500;DHT22;39101;53.478;6.158;2023-05-07T09:37:53;11.10;99.90
51500;DHT22;39101;53.478;6.158;2023-05-07T09:40:25;11.30;99.90
51500;DHT22;39101;53.478;6.158;2023-05-07T09:42:51;11.40;99.90
51500;DHT22;39101;53.478;6.158;2023-05-07T09:45:27;11.50;99.90
51500;DHT22;39101;53.478;6.158;2023-05-07T09:47:57;11.60;99.90
51500;DHT22;39101;53.478;6.158;2023-05-07T09:50:35;11.90;99.90
51500;DHT22;39101;53.478;6.158;2023-05-07T09:53:01;12.00;99.90
51500;DHT22;39101;53.478;6.158;2023-05-07T09:55:27;12.00;99.90
51500;DHT22;39101;53.478;6.158;2023-05-07T09:57:53;12.00;99.90
51500;DHT22;39101;53.478;6.158;2023-05-07T10:00:21;12.30;99.90
51500;DHT22;39101;53.478;6.158;2023-05-07T10:02:49;12.40;99.90
51500;DHT22;39101;53.478;6.158;2023-05-07T10:05:19;12.30;99.90
51500;DHT22;39101;53.478;6.158;2023-05-07T10:07:46;12.40;99.90
51500;DHT22;39101;53.478;6.158;2023-05-07T10:10:12;12.10;99.90
51500;DHT22;39101;53.478;6.158;2023-05-07T10:12:40;12.30;99.90
51500;DHT22;39101;53.478;6.158;2023-05-07T10:15:10;12.30;99.90
51500;DHT22;39101;53.478;6.158;2023-05-07T10:17:39;12.20;99.90
51500;DHT22;39101;53.478;6.158;2023-05-07T10:20:06;12.30;99.90
51500;DHT22;39101;53.478;6.158;2023-05-07T10:22:43;12.20;99.90
51500;DHT22;39101;53.478;6.158;2023-05-07T10:27:41;12.40;99.90
51500;DHT22;39101;53.478;6.158;2023-05-07T10:30:26;12.40;99.90
51500;DHT22;39101;53.478;6.158;2023-05-07T10:32:55;12.60;99.90
51500;DHT22;39101;53.478;6.158;2023-05-07T10:35:25;12.80;99.90
51500;DHT22;39101;53.478;6.158;2023-05-07T10:37:52;12.80;99.90
51500;DHT22;39101;53.478;6.158;2023-05-07T10:40:20;12.80;99.90
51500;DHT22;39101;53.478;6.158;2023-05-07T10:43:00;13.20;99.90
51500;DHT22;39101;53.478;6.158;2023-05-07T10:45:27;13.10;99.90
51500;DHT22;39101;53.478;6.158;2023-05-07T10:48:12;13.40;99.90
51500;DHT22;39101;53.478;6.158;2023-05-07T10:50:40;13.40;99.90
51500;DHT22;39101;53.478;6.158;2023-05-07T10:55:51;13.50;99.90
51500;DHT22;39101;53.478;6.158;2023-05-07T10:58:27;13.60;99.90
51500;DHT22;39101;53.478;6.158;2023-05-07T11:01:01;13.70;99.90
51500;DHT22;39101;53.478;6.158;2023-05-07T11:03:27;13.70;99.90
51500;DHT22;39101;53.478;6.158;2023-05-07T11:06:13;13.70;99.90
51500;DHT22;39101;53.478;6.158;2023-05-07T11:08:55;14.00;99.90
51500;DHT22;39101;53.478;6.158;2023-05-07T11:14:09;14.00;99.90
51500;DHT22;39101;53.478;6.158;2023-05-07T11:16:35;13.90;99.90
51500;DHT22;39101;53.478;6.158;2023-05-07T11:19:03;14.10;99.90
51500;DHT22;39101;53.478;6.158;2023-05-07T11:21:40;14.00;99.90
51500;DHT22;39101;53.478;6.158;2023-05-07T11:24:09;14.20;99.90
51500;DHT22;39101;53.478;6.158;2023-05-07T11:26:56;14.10;99.90
51500;DHT22;39101;53.478;6.158;2023-05-07T11:29:22;14.20;99.90
51500;DHT22;39101;53.478;6.158;2023-05-07T11:31:52;14.30;99.90
51500;DHT22;39101;53.478;6.158;2023-05-07T11:34:27;14.40;99.90
51500;DHT22;39101;53.478;6.158;2023-05-07T11:36:53;14.50;99.90
51500;DHT22;39101;53.478;6.158;2023-05-07T11:39:32;14.70;99.90
51500;DHT22;39101;53.478;6.158;2023-05-07T11:42:01;15.00;99.90
51500;DHT22;39101;53.478;6.158;2023-05-07T11:44:44;14.90;99.90
51500;DHT22;39101;53.478;6.158;2023-05-07T11:47:16;14.90;99.90
51500;DHT22;39101;53.478;6.158;2023-05-07T11:49:42;14.90;99.90
51500;DHT22;39101;53.478;6.158;2023-05-07T11:52:08;15.00;99.90
51500;DHT22;39101;53.478;6.158;2023-05-07T11:54:37;14.90;99.90
51500;DHT22;39101;53.478;6.158;2023-05-07T11:57:03;15.10;99.90
51500;DHT22;39101;53.478;6.158;2023-05-07T11:59:28;15.00;99.90
51500;DHT22;39101;53.478;6.158;2023-05-07T12:01:57;15.00;99.90
51500;DHT22;39101;53.478;6.158;2023-05-07T12:04:24;15.20;99.90
51500;DHT22;39101;53.478;6.158;2023-05-07T12:06:54;15.10;99.90
51500;DHT22;39101;53.478;6.158;2023-05-07T12:09:21;15.30;99.90
51500;DHT22;39101;53.478;6.158;2023-05-07T12:11:47;15.30;99.90
51500;DHT22;39101;53.478;6.158;2023-05-07T12:14:13;15.60;99.90
51500;DHT22;39101;53.478;6.158;2023-05-07T12:16:40;15.50;99.90
51500;DHT22;39101;53.478;6.158;2023-05-07T12:19:06;15.40;99.90
51500;DHT22;39101;53.478;6.158;2023-05-07T12:21:34;15.60;99.90
51500;DHT22;39101;53.478;6.158;2023-05-07T12:24:01;15.50;99.90
51500;DHT22;39101;53.478;6.158;2023-05-07T12:26:27;15.50;99.90
51500;DHT22;39101;53.478;6.158;2023-05-07T12:28:53;15.70;99.90
51500;DHT22;39101;53.478;6.158;2023-05-07T12:31:18;15.80;99.90
51500;DHT22;39101;53.478;6.158;2023-05-07T12:33:45;15.60;99.90
51500;DHT22;39101;53.478;6.158;2023-05-07T12:36:12;15.70;99.90
51500;DHT22;39101;53.478;6.158;2023-05-07T12:38:39;15.70;99.90
51500;DHT22;39101;53.478;6.158;2023-05-07T12:41:07;15.80;99.90
51500;DHT22;39101;53.478;6.158;2023-05-07T12:43:33;15.70;99.90
51500;DHT22;39101;53.478;6.158;2023-05-07T12:46:06;15.80;99.90
51500;DHT22;39101;53.478;6.158;2023-05-07T12:48:33;15.80;99.90
51500;DHT22;39101;53.478;6.158;2023-05-07T12:51:01;15.80;99.90
51500;DHT22;39101;53.478;6.158;2023-05-07T12:53:28;15.80;99.90
51500;DHT22;39101;53.478;6.158;2023-05-07T12:55:58;15.70;99.90
51500;DHT22;39101;53.478;6.158;2023-05-07T12:58:30;15.60;99.90
51500;DHT22;39101;53.478;6.158;2023-05-07T13:00:58;15.60;99.90
51500;DHT22;39101;53.478;6.158;2023-05-07T13:03:32;15.80;99.90
51500;DHT22;39101;53.478;6.158;2023-05-07T13:06:00;15.80;99.90
51500;DHT22;39101;53.478;6.158;2023-05-07T13:08:30;15.70;99.90
51500;DHT22;39101;53.478;6.158;2023-05-07T13:10:58;15.80;99.90
51500;DHT22;39101;53.478;6.158;2023-05-07T13:13:24;15.80;99.90
51500;DHT22;39101;53.478;6.158;2023-05-07T13:15:50;15.90;99.90
51500;DHT22;39101;53.478;6.158;2023-05-07T13:18:16;16.10;99.90
51500;DHT22;39101;53.478;6.158;2023-05-07T13:20:42;16.10;99.90
51500;DHT22;39101;53.478;6.158;2023-05-07T13:23:08;16.00;99.90
51500;DHT22;39101;53.478;6.158;2023-05-07T13:25:34;16.10;99.90
51500;DHT22;39101;53.478;6.158;2023-05-07T13:28:00;16.20;99.90
51500;DHT22;39101;53.478;6.158;2023-05-07T13:30:25;16.10;99.90
51500;DHT22;39101;53.478;6.158;2023-05-07T13:32:53;16.20;99.90
51500;DHT22;39101;53.478;6.158;2023-05-07T13:35:20;16.10;99.90
51500;DHT22;39101;53.478;6.158;2023-05-07T13:37:46;16.20;99.90
51500;DHT22;39101;53.478;6.158;2023-05-07T13:40:13;16.20;99.90
51500;DHT22;39101;53.478;6.158;2023-05-07T13:42:39;16.20;99.90
51500;DHT22;39101;53.478;6.158;2023-05-07T13:45:05;16.30;99.90
51500;DHT22;39101;53.478;6.158;2023-05-07T13:47:31;16.40;99.90
51500;DHT22;39101;53.478;6.158;2023-05-07T13:49:57;16.50;99.90
51500;DHT22;39101;53.478;6.158;2023-05-07T13:52:22;16.40;99.90
51500;DHT22;39101;53.478;6.158;2023-05-07T13:54:48;16.60;99.90
51500;DHT22;39101;53.478;6.158;2023-05-07T13:57:14;16.70;99.90
51500;DHT22;39101;53.478;6.158;2023-05-07T13:59:40;16.70;99.90
51500;DHT22;39101;53.478;6.158;2023-05-07T14:02:06;16.70;99.90
51500;DHT22;39101;53.478;6.158;2023-05-07T14:04:32;16.80;99.90
51500;DHT22;39101;53.478;6.158;2023-05-07T14:06:57;16.90;99.90
51500;DHT22;39101;53.478;6.158;2023-05-07T14:09:23;17.00;99.90
51500;DHT22;39101;53.478;6.158;2023-05-07T14:11:48;17.00;99.90
51500;DHT22;39101;53.478;6.158;2023-05-07T14:14:17;16.90;99.90
51500;DHT22;39101;53.478;6.158;2023-05-07T14:16:43;17.00;99.90
51500;DHT22;39101;53.478;6.158;2023-05-07T14:19:09;17.00;99.90
51500;DHT22;39101;53.478;6.158;2023-05-07T14:21:35;16.90;99.90
51500;DHT22;39101;53.478;6.158;2023-05-07T14:24:01;17.00;99.90
51500;DHT22;39101;53.478;6.158;2023-05-07T14:26:26;17.10;99.90
51500;DHT22;39101;53.478;6.158;2023-05-07T14:28:52;17.00;99.90
51500;DHT22;39101;53.478;6.158;2023-05-07T14:31:20;17.00;99.90
51500;DHT22;39101;53.478;6.158;2023-05-07T14:33:46;17.10;99.90
51500;DHT22;39101;53.478;6.158;2023-05-07T14:36:12;17.00;99.90
51500;DHT22;39101;53.478;6.158;2023-05-07T14:38:37;17.10;99.90
51500;DHT22;39101;53.478;6.158;2023-05-07T14:41:03;17.10;99.90
51500;DHT22;39101;53.478;6.158;2023-05-07T14:43:29;17.20;99.90
51500;DHT22;39101;53.478;6.158;2023-05-07T14:45:55;17.10;99.90
51500;DHT22;39101;53.478;6.158;2023-05-07T14:48:20;17.20;99.90
51500;DHT22;39101;53.478;6.158;2023-05-07T14:50:49;17.40;99.90
51500;DHT22;39101;53.478;6.158;2023-05-07T14:53:15;17.50;99.90
51500;DHT22;39101;53.478;6.158;2023-05-07T14:55:41;17.40;99.90
51500;DHT22;39101;53.478;6.158;2023-05-07T14:58:06;17.50;99.90
51500;DHT22;39101;53.478;6.158;2023-05-07T15:00:33;17.60;99.90
51500;DHT22;39101;53.478;6.158;2023-05-07T15:03:08;17.70;99.90
51500;DHT22;39101;53.478;6.158;2023-05-07T15:05:35;17.60;99.90
51500;DHT22;39101;53.478;6.158;2023-05-07T15:08:01;17.80;99.90
51500;DHT22;39101;53.478;6.158;2023-05-07T15:10:27;17.70;99.90
51500;DHT22;39101;53.478;6.158;2023-05-07T15:12:52;17.90;99.90
51500;DHT22;39101;53.478;6.158;2023-05-07T15:15:18;18.00;99.90
51500;DHT22;39101;53.478;6.158;2023-05-07T15:17:43;18.00;99.90
51500;DHT22;39101;53.478;6.158;2023-05-07T15:20:09;18.00;99.90
51500;DHT22;39101;53.478;6.158;2023-05-07T15:22:35;17.80;99.90
51500;DHT22;39101;53.478;6.158;2023-05-07T15:25:03;17.80;99.90
51500;DHT22;39101;53.478;6.158;2023-05-07T15:27:30;17.90;99.90
51500;DHT22;39101;53.478;6.158;2023-05-07T15:29:57;18.10;99.90
51500;DHT22;39101;53.478;6.158;2023-05-07T15:32:23;18.00;99.90
51500;DHT22;39101;53.478;6.158;2023-05-07T15:34:48;17.80;99.90
51500;DHT22;39101;53.478;6.158;2023-05-07T15:37:14;17.80;99.90